Jamaica, NY (11433)

9:01 PM EDT on August 30, 2016 (GMT -0400)
Addisleigh Park | | Change Station
Active Advisory: Coastal Hazard Statement

Elev 36 ft 40.70 °N, 73.77 °W | Updated 12 seconds ago

Mostly Cloudy
Mostly Cloudy
76.5 °F
Feels Like 77 °F
N
1.3
Wind Variable Wind from SE
Gusts 2.5 mph

Today
High -- | Low -- °F
--% Chance of Precip.
Yesterday
High -- | Low -- °F
Precip. -- in
Pressure 30.06 in
Visibility 10.0 miles
Clouds Few 5000 ft
Mostly Cloudy 25000 ft
Heat Index 77 °F
Dew Point 72 °F
Humidity 87%
Rainfall 0.00 in
Snow Depth Not available.
6:20 AM 7:29 PM
Waning Crescent, 2% visible
METAR KJFK 310051Z 17007KT 10SM FEW050 BKN250 25/23 A3006 RMK AO2 SLP179 T02440228 $
Pressure 30.06 in
Visibility 10.0 miles
Clouds Few 5000 ft
Mostly Cloudy 25000 ft
Heat Index 77 °F
Dew Point 72 °F
Humidity 87%
Rainfall 0.00 in
Snow Depth Not available.
6:20 AM 7:29 PM
Waning Crescent, 2% visible
METAR KJFK 310051Z 17007KT 10SM FEW050 BKN250 25/23 A3006 RMK AO2 SLP179 T02440228 $

10-Day Weather Forecast

Almanac

Astronomy

Aug. 30, 2016 Rise Set
Actual Time
Civil Twilight
Nautical Twilight
Astronomical Twilight
Moon
Length of Visible Light
Length of Day
Tomorrow will be .
, % of the Moon is Illuminated

Today's Extremes

State Highs State Lows

Community

WunderPhotos

Upload Photos

1,935,971 photos uploaded!

WunderBlog® & News

Nearby

Air Quality

  Air Quality AQ Index Pollutant
Not available.

Snow Depth

Station Depth Elevation

Earthquake Activity

City Distance Mag. Time & Date
Minimum magnitude displayed is 2.5.

Coastal Water Temperatures

Place Temperature

Stations

Nearby Weather Stations

Station Location Temp. Windchill Dew Point Humidity Wind Precip. Elev Updated Type
                   

Watches & Warnings

Coastal Hazard Statement
Issued: 4:49 PM EDT Aug. 30, 2016 – National Weather Service

... High rip current risk now in effect through Wednesday
evening...

* locations... the ocean beaches of Kings... southern Queens...
southern Nassau... and southern Suffolk counties.

* Rip current risk... high

* surf height... 3 to 7 feet.

* Lightning risk... none

* timing... through 800 PM EDT Wednesday evening.

Precautionary/preparedness actions...

Rip currents are powerful channels of water flowing quickly away
from shore... which occur most often at low spots or breaks in The
Sandbar and in the vicinity of structures such as groins...
jetties and piers. Talk to lifeguards and beach officials to
learn about any surf hazards and heed their advice. Pay attention
to flags and posted signs and swim in life guarded areas.

If you become caught in a rip current... Yell for help. Remain
calm... do not exhaust yourself and stay afloat while waiting for
help. If you have to swim out of a rip current... swim parallel to
shore. Once you are away from the force of the rip current...
begin to swim back toward the beach. Do not attempt to swim
directly against a rip current as you will tire quickly.